sensor_id;sensor_type;location;lat;lon;timestamp;pressure;altitude;pressure_sealevel;temperature;humidity
21821;BME280;11073;48.586;12.066;2023-02-11T00:01:40;98334.22;;;0.09;56.19
21821;BME280;11073;48.586;12.066;2023-02-11T00:04:08;98341.75;;;0.04;56.25
21821;BME280;11073;48.586;12.066;2023-02-11T00:06:37;98337.25;;;0.04;56.45
21821;BME280;11073;48.586;12.066;2023-02-11T00:09:06;98332.78;;;0.05;56.55
21821;BME280;11073;48.586;12.066;2023-02-11T00:11:36;98330.81;;;0.07;56.50
21821;BME280;11073;48.586;12.066;2023-02-11T00:14:05;98328.91;;;0.09;56.55
21821;BME280;11073;48.586;12.066;2023-02-11T00:16:35;98321.56;;;0.01;56.55
21821;BME280;11073;48.586;12.066;2023-02-11T00:19:03;98330.53;;;0.00;56.74
21821;BME280;11073;48.586;12.066;2023-02-11T00:21:33;98320.81;;;-0.01;56.72
21821;BME280;11073;48.586;12.066;2023-02-11T00:24:02;98314.53;;;0.00;56.66
21821;BME280;11073;48.586;12.066;2023-02-11T00:26:32;98323.38;;;0.01;56.76
21821;BME280;11073;48.586;12.066;2023-02-11T00:29:03;98320.81;;;-0.01;56.83
21821;BME280;11073;48.586;12.066;2023-02-11T00:31:32;98318.88;;;0.01;56.73
21821;BME280;11073;48.586;12.066;2023-02-11T00:34:04;98317.06;;;0.02;56.75
21821;BME280;11073;48.586;12.066;2023-02-11T00:36:32;98322.41;;;0.02;56.52
21821;BME280;11073;48.586;12.066;2023-02-11T00:39:01;98313.66;;;-0.01;56.67
21821;BME280;11073;48.586;12.066;2023-02-11T00:41:30;98312.25;;;-0.05;56.80
21821;BME280;11073;48.586;12.066;2023-02-11T00:43:59;98287.00;;;-0.21;56.76
21821;BME280;11073;48.586;12.066;2023-02-11T00:46:30;98308.88;;;-0.07;56.84
21821;BME280;11073;48.586;12.066;2023-02-11T00:48:59;98307.41;;;-0.11;56.83
21821;BME280;11073;48.586;12.066;2023-02-11T00:51:27;98314.28;;;-0.08;56.95
21821;BME280;11073;48.586;12.066;2023-02-11T00:53:56;98302.84;;;-0.20;56.89
21821;BME280;11073;48.586;12.066;2023-02-11T00:56:25;98313.00;;;-0.14;57.02
21821;BME280;11073;48.586;12.066;2023-02-11T00:58:55;98321.72;;;-0.12;57.03
21821;BME280;11073;48.586;12.066;2023-02-11T01:01:24;98317.50;;;-0.14;57.13
21821;BME280;11073;48.586;12.066;2023-02-11T01:03:54;98301.81;;;-0.29;56.93
21821;BME280;11073;48.586;12.066;2023-02-11T01:06:23;98291.44;;;-0.43;56.93
21821;BME280;11073;48.586;12.066;2023-02-11T01:08:52;98297.09;;;-0.36;56.94
21821;BME280;11073;48.586;12.066;2023-02-11T01:11:20;98303.50;;;-0.28;57.14
21821;BME280;11073;48.586;12.066;2023-02-11T01:13:50;98313.03;;;-0.25;57.10
21821;BME280;11073;48.586;12.066;2023-02-11T01:16:19;98306.38;;;-0.31;57.31
21821;BME280;11073;48.586;12.066;2023-02-11T01:18:48;98306.28;;;-0.40;57.41
21821;BME280;11073;48.586;12.066;2023-02-11T01:21:18;98309.44;;;-0.35;57.46
21821;BME280;11073;48.586;12.066;2023-02-11T01:23:49;98311.97;;;-0.34;57.53
21821;BME280;11073;48.586;12.066;2023-02-11T01:26:18;98313.78;;;-0.34;57.44
21821;BME280;11073;48.586;12.066;2023-02-11T01:28:46;98315.00;;;-0.38;57.69
21821;BME280;11073;48.586;12.066;2023-02-11T01:31:16;98311.63;;;-0.40;57.59
21821;BME280;11073;48.586;12.066;2023-02-11T01:33:45;98309.44;;;-0.46;57.65
21821;BME280;11073;48.586;12.066;2023-02-11T01:36:14;98311.75;;;-0.53;57.54
21821;BME280;11073;48.586;12.066;2023-02-11T01:38:43;98306.44;;;-0.53;57.83
21821;BME280;11073;48.586;12.066;2023-02-11T01:41:13;98303.28;;;-0.58;57.81
21821;BME280;11073;48.586;12.066;2023-02-11T01:43:45;98304.16;;;-0.58;57.88
21821;BME280;11073;48.586;12.066;2023-02-11T01:46:20;98297.97;;;-0.58;57.79
21821;BME280;11073;48.586;12.066;2023-02-11T01:48:54;98295.31;;;-0.58;57.85
21821;BME280;11073;48.586;12.066;2023-02-11T01:51:28;98297.88;;;-0.57;57.87
21821;BME280;11073;48.586;12.066;2023-02-11T01:54:04;98290.13;;;-0.60;57.99
21821;BME280;11073;48.586;12.066;2023-02-11T01:56:54;98284.44;;;-0.66;58.00
21821;BME280;11073;48.586;12.066;2023-02-11T01:59:45;98276.09;;;-0.73;58.26
21821;BME280;11073;48.586;12.066;2023-02-11T02:02:18;98273.44;;;-0.73;58.28
21821;BME280;11073;48.586;12.066;2023-02-11T02:04:52;98257.16;;;-0.79;58.27
21821;BME280;11073;48.586;12.066;2023-02-11T02:07:28;98255.97;;;-0.87;58.31
21821;BME280;11073;48.586;12.066;2023-02-11T02:10:04;98266.47;;;-0.85;58.42
21821;BME280;11073;48.586;12.066;2023-02-11T02:12:35;98252.44;;;-0.87;58.46
21821;BME280;11073;48.586;12.066;2023-02-11T02:15:19;98250.03;;;-0.90;58.41
21821;BME280;11073;48.586;12.066;2023-02-11T02:17:55;98251.72;;;-0.89;58.67
21821;BME280;11073;48.586;12.066;2023-02-11T02:20:47;98251.97;;;-0.92;58.69
21821;BME280;11073;48.586;12.066;2023-02-11T02:23:32;98242.75;;;-0.88;58.90
21821;BME280;11073;48.586;12.066;2023-02-11T02:29:35;98238.81;;;-0.94;59.13
21821;BME280;11073;48.586;12.066;2023-02-11T02:32:21;98226.44;;;-0.95;59.01
21821;BME280;11073;48.586;12.066;2023-02-11T02:34:55;98227.44;;;-0.96;59.02
21821;BME280;11073;48.586;12.066;2023-02-11T02:37:31;98219.09;;;-1.02;59.17
21821;BME280;11073;48.586;12.066;2023-02-11T02:40:06;98220.47;;;-1.08;59.25
21821;BME280;11073;48.586;12.066;2023-02-11T02:42:39;98223.97;;;-1.07;59.04
21821;BME280;11073;48.586;12.066;2023-02-11T02:45:10;98220.47;;;-1.08;59.09
21821;BME280;11073;48.586;12.066;2023-02-11T02:47:40;98214.28;;;-1.08;59.03
21821;BME280;11073;48.586;12.066;2023-02-11T02:50:10;98218.03;;;-1.11;59.28
21821;BME280;11073;48.586;12.066;2023-02-11T02:52:49;98212.00;;;-1.13;59.44
21821;BME280;11073;48.586;12.066;2023-02-11T02:55:43;98220.69;;;-1.11;59.26
21821;BME280;11073;48.586;12.066;2023-02-11T02:58:26;98218.16;;;-1.13;59.59
21821;BME280;11073;48.586;12.066;2023-02-11T03:01:05;98204.63;;;-1.21;59.51
21821;BME280;11073;48.586;12.066;2023-02-11T03:03:42;98205.59;;;-1.33;59.72
21821;BME280;11073;48.586;12.066;2023-02-11T03:06:19;98207.78;;;-1.27;59.84
21821;BME280;11073;48.586;12.066;2023-02-11T03:08:54;98215.13;;;-1.19;60.07
21821;BME280;11073;48.586;12.066;2023-02-11T03:11:26;98215.75;;;-1.16;60.02
21821;BME280;11073;48.586;12.066;2023-02-11T03:13:59;98210.31;;;-1.14;60.06
21821;BME280;11073;48.586;12.066;2023-02-11T03:16:29;98209.56;;;-1.16;60.21
21821;BME280;11073;48.586;12.066;2023-02-11T03:19:05;98209.56;;;-1.16;60.32
21821;BME280;11073;48.586;12.066;2023-02-11T03:21:40;98203.88;;;-1.12;60.46
21821;BME280;11073;48.586;12.066;2023-02-11T03:24:14;98203.03;;;-1.12;60.64
21821;BME280;11073;48.586;12.066;2023-02-11T03:26:47;98214.28;;;-1.08;60.55
21821;BME280;11073;48.586;12.066;2023-02-11T03:29:24;98216.81;;;-1.07;60.55
21821;BME280;11073;48.586;12.066;2023-02-11T03:32:03;98221.03;;;-1.04;60.75
21821;BME280;11073;48.586;12.066;2023-02-11T03:34:41;98225.03;;;-0.99;60.53
21821;BME280;11073;48.586;12.066;2023-02-11T03:37:15;98235.28;;;-0.94;60.78
21821;BME280;11073;48.586;12.066;2023-02-11T03:39:50;98238.56;;;-0.91;60.72
21821;BME280;11073;48.586;12.066;2023-02-11T03:42:22;98235.75;;;-0.89;60.75
21821;BME280;11073;48.586;12.066;2023-02-11T03:44:58;98231.78;;;-0.95;60.63
21821;BME280;11073;48.586;12.066;2023-02-11T03:47:31;98226.72;;;-0.98;60.49
21821;BME280;11073;48.586;12.066;2023-02-11T03:50:04;98212.47;;;-1.08;60.62
21821;BME280;11073;48.586;12.066;2023-02-11T03:52:34;98223.94;;;-1.19;60.31
21821;BME280;11073;48.586;12.066;2023-02-11T03:55:08;98218.28;;;-1.25;60.68
21821;BME280;11073;48.586;12.066;2023-02-11T03:57:38;98223.72;;;-1.27;60.65
21821;BME280;11073;48.586;12.066;2023-02-11T04:00:08;98226.03;;;-1.22;60.75
21821;BME280;11073;48.586;12.066;2023-02-11T04:02:38;98224.56;;;-1.26;60.92
21821;BME280;11073;48.586;12.066;2023-02-11T04:05:11;98222.53;;;-1.23;61.06
21821;BME280;11073;48.586;12.066;2023-02-11T04:07:40;98224.78;;;-1.18;61.00
21821;BME280;11073;48.586;12.066;2023-02-11T04:10:10;98235.22;;;-1.15;61.05
21821;BME280;11073;48.586;12.066;2023-02-11T04:12:38;98241.38;;;-1.15;61.07
21821;BME280;11073;48.586;12.066;2023-02-11T04:15:08;98247.88;;;-1.19;60.94
21821;BME280;11073;48.586;12.066;2023-02-11T04:17:36;98256.69;;;-1.18;60.98
21821;BME280;11073;48.586;12.066;2023-02-11T04:20:06;98247.88;;;-1.19;60.81
21821;BME280;11073;48.586;12.066;2023-02-11T04:22:37;98246.31;;;-1.21;61.05
21821;BME280;11073;48.586;12.066;2023-02-11T04:25:07;98246.94;;;-1.29;60.76
21821;BME280;11073;48.586;12.066;2023-02-11T04:27:35;98246.19;;;-1.31;60.90
21821;BME280;11073;48.586;12.066;2023-02-11T04:30:06;98247.06;;;-1.30;60.98
21821;BME280;11073;48.586;12.066;2023-02-11T04:32:35;98242.59;;;-1.30;61.16
21821;BME280;11073;48.586;12.066;2023-02-11T04:35:04;98242.31;;;-1.27;61.24
21821;BME280;11073;48.586;12.066;2023-02-11T04:37:33;98235.56;;;-1.20;61.39
21821;BME280;11073;48.586;12.066;2023-02-11T04:40:04;98220.19;;;-1.16;61.38
21821;BME280;11073;48.586;12.066;2023-02-11T04:42:32;98220.31;;;-1.18;61.61
21821;BME280;11073;48.586;12.066;2023-02-11T04:45:01;98212.34;;;-1.18;61.47
21821;BME280;11073;48.586;12.066;2023-02-11T04:47:30;98214.78;;;-1.15;61.78
21821;BME280;11073;48.586;12.066;2023-02-11T04:49:59;98211.63;;;-1.20;61.94
21821;BME280;11073;48.586;12.066;2023-02-11T04:52:27;98208.97;;;-1.20;62.05
21821;BME280;11073;48.586;12.066;2023-02-11T04:54:56;98194.59;;;-1.17;62.21
21821;BME280;11073;48.586;12.066;2023-02-11T04:57:26;98198.56;;;-1.12;62.34
21821;BME280;11073;48.586;12.066;2023-02-11T04:59:55;98201.00;;;-1.08;62.37
21821;BME280;11073;48.586;12.066;2023-02-11T05:02:24;98198.44;;;-1.10;62.61
21821;BME280;11073;48.586;12.066;2023-02-11T05:04:53;98195.56;;;-1.07;62.85
21821;BME280;11073;48.586;12.066;2023-02-11T05:07:22;98193.03;;;-1.08;62.71
21821;BME280;11073;48.586;12.066;2023-02-11T05:09:50;98189.97;;;-1.04;63.15
21821;BME280;11073;48.586;12.066;2023-02-11T05:12:19;98196.25;;;-0.94;63.02
21821;BME280;11073;48.586;12.066;2023-02-11T05:14:49;98192.22;;;-0.88;62.96
21821;BME280;11073;48.586;12.066;2023-02-11T05:17:18;98195.38;;;-0.83;63.08
21821;BME280;11073;48.586;12.066;2023-02-11T05:19:47;98186.56;;;-0.84;63.08
21821;BME280;11073;48.586;12.066;2023-02-11T05:22:15;98210.72;;;-0.75;63.16
21821;BME280;11073;48.586;12.066;2023-02-11T05:24:44;98198.72;;;-0.70;63.09
21821;BME280;11073;48.586;12.066;2023-02-11T05:27:13;98200.16;;;-0.66;63.19
21821;BME280;11073;48.586;12.066;2023-02-11T05:29:42;98197.50;;;-0.66;63.26
21821;BME280;11073;48.586;12.066;2023-02-11T05:32:12;98189.78;;;-0.69;63.21
21821;BME280;11073;48.586;12.066;2023-02-11T05:34:41;98203.91;;;-0.68;63.35
21821;BME280;11073;48.586;12.066;2023-02-11T05:37:10;98199.06;;;-0.63;63.38
21821;BME280;11073;48.586;12.066;2023-02-11T05:39:39;98195.44;;;-0.62;63.25
21821;BME280;11073;48.586;12.066;2023-02-11T05:42:08;98182.72;;;-0.59;63.40
21821;BME280;11073;48.586;12.066;2023-02-11T05:44:37;98187.31;;;-0.61;63.25
21821;BME280;11073;48.586;12.066;2023-02-11T05:47:06;98197.13;;;-0.61;63.41
21821;BME280;11073;48.586;12.066;2023-02-11T05:49:37;98188.81;;;-0.68;63.56
21821;BME280;11073;48.586;12.066;2023-02-11T05:52:05;98194.84;;;-0.66;63.68
21821;BME280;11073;48.586;12.066;2023-02-11T05:54:34;98198.47;;;-0.67;63.79
21821;BME280;11073;48.586;12.066;2023-02-11T05:57:03;98196.41;;;-0.63;63.79
21821;BME280;11073;48.586;12.066;2023-02-11T05:59:32;98199.78;;;-0.61;63.83
21821;BME280;11073;48.586;12.066;2023-02-11T06:02:00;98197.13;;;-0.61;63.93
21821;BME280;11073;48.586;12.066;2023-02-11T06:04:29;98209.28;;;-0.47;63.87
21821;BME280;11073;48.586;12.066;2023-02-11T06:06:59;98198.16;;;-0.41;63.99
21821;BME280;11073;48.586;12.066;2023-02-11T06:09:28;98193.41;;;-0.38;63.84
21821;BME280;11073;48.586;12.066;2023-02-11T06:11:57;98196.66;;;-0.34;63.88
21821;BME280;11073;48.586;12.066;2023-02-11T06:14:25;98180.69;;;-0.34;63.67
21821;BME280;11073;48.586;12.066;2023-02-11T06:16:54;98178.91;;;-0.45;63.85
21821;BME280;11073;48.586;12.066;2023-02-11T06:19:22;98177.72;;;-0.52;63.86
21821;BME280;11073;48.586;12.066;2023-02-11T06:21:51;98182.94;;;-0.50;63.99
21821;BME280;11073;48.586;12.066;2023-02-11T06:24:21;98185.34;;;-0.47;63.94
21821;BME280;11073;48.586;12.066;2023-02-11T06:27:11;98197.88;;;-0.38;63.99
21821;BME280;11073;48.586;12.066;2023-02-11T06:29:40;98189.66;;;-0.35;64.13
21821;BME280;11073;48.586;12.066;2023-02-11T06:32:09;98198.63;;;-0.36;63.98
21821;BME280;11073;48.586;12.066;2023-02-11T06:34:59;98198.72;;;-0.38;64.01
21821;BME280;11073;48.586;12.066;2023-02-11T06:37:28;98186.25;;;-0.37;64.07
21821;BME280;11073;48.586;12.066;2023-02-11T06:39:58;98184.56;;;-0.38;64.13
21821;BME280;11073;48.586;12.066;2023-02-11T06:42:27;98183.03;;;-0.41;64.28
21821;BME280;11073;48.586;12.066;2023-02-11T06:44:56;98187.50;;;-0.41;64.32
21821;BME280;11073;48.586;12.066;2023-02-11T06:47:24;98193.16;;;-0.35;64.25
21821;BME280;11073;48.586;12.066;2023-02-11T06:49:52;98186.47;;;-0.29;64.28
21821;BME280;11073;48.586;12.066;2023-02-11T06:52:20;98190.09;;;-0.30;64.30
21821;BME280;11073;48.586;12.066;2023-02-11T06:54:49;98184.41;;;-0.25;64.60
21821;BME280;11073;48.586;12.066;2023-02-11T06:57:19;98179.78;;;-0.23;64.31
21821;BME280;11073;48.586;12.066;2023-02-11T06:59:48;98170.47;;;-0.29;64.44
21821;BME280;11073;48.586;12.066;2023-02-11T07:02:16;98166.97;;;-0.30;64.63
21821;BME280;11073;48.586;12.066;2023-02-11T07:04:47;98174.97;;;-0.30;64.56
21821;BME280;11073;48.586;12.066;2023-02-11T07:07:15;98170.47;;;-0.29;64.67
21821;BME280;11073;48.586;12.066;2023-02-11T07:09:44;98168.09;;;-0.32;64.77
21821;BME280;11073;48.586;12.066;2023-02-11T07:12:13;98171.34;;;-0.29;64.88
21821;BME280;11073;48.586;12.066;2023-02-11T07:14:43;98176.78;;;-0.30;64.93
21821;BME280;11073;48.586;12.066;2023-02-11T07:17:11;98181.75;;;-0.25;64.92
21821;BME280;11073;48.586;12.066;2023-02-11T07:19:40;98175.50;;;-0.15;65.08
21821;BME280;11073;48.586;12.066;2023-02-11T07:22:08;98176.28;;;-0.03;64.94
21821;BME280;11073;48.586;12.066;2023-02-11T07:24:36;98183.63;;;0.05;64.96
21821;BME280;11073;48.586;12.066;2023-02-11T07:27:05;98184.47;;;0.05;64.78
21821;BME280;11073;48.586;12.066;2023-02-11T07:29:33;98178.47;;;0.13;64.84
21821;BME280;11073;48.586;12.066;2023-02-11T07:32:04;98172.78;;;0.17;64.94
21821;BME280;11073;48.586;12.066;2023-02-11T07:34:33;98172.63;;;0.19;64.75
21821;BME280;11073;48.586;12.066;2023-02-11T07:37:02;98165.75;;;0.16;64.66
21821;BME280;11073;48.586;12.066;2023-02-11T07:39:30;98169.66;;;0.12;64.75
21821;BME280;11073;48.586;12.066;2023-02-11T07:41:59;98174.72;;;0.15;64.75
21821;BME280;11073;48.586;12.066;2023-02-11T07:44:27;98164.47;;;0.11;64.76
21821;BME280;11073;48.586;12.066;2023-02-11T07:46:56;98167.78;;;0.03;64.80
21821;BME280;11073;48.586;12.066;2023-02-11T07:49:25;98143.16;;;-0.10;65.13
21821;BME280;11073;48.586;12.066;2023-02-11T07:51:54;98165.44;;;0.10;65.04
21821;BME280;11073;48.586;12.066;2023-02-11T07:54:23;98168.09;;;0.10;65.13
21821;BME280;11073;48.586;12.066;2023-02-11T07:56:51;98171.00;;;0.07;65.25
21821;BME280;11073;48.586;12.066;2023-02-11T07:59:20;98173.16;;;0.13;65.37
21821;BME280;11073;48.586;12.066;2023-02-11T08:01:51;98174.19;;;0.21;65.23
21821;BME280;11073;48.586;12.066;2023-02-11T08:04:19;98171.00;;;0.27;65.33
21821;BME280;11073;48.586;12.066;2023-02-11T08:06:49;98156.91;;;0.37;65.32
21821;BME280;11073;48.586;12.066;2023-02-11T08:09:19;98155.25;;;0.45;65.27
21821;BME280;11073;48.586;12.066;2023-02-11T08:11:48;98147.81;;;0.49;64.99
21821;BME280;11073;48.586;12.066;2023-02-11T08:14:16;98154.22;;;0.67;65.08
21821;BME280;11073;48.586;12.066;2023-02-11T08:16:46;98149.88;;;0.76;65.05
21821;BME280;11073;48.586;12.066;2023-02-11T08:19:16;98148.06;;;0.86;65.10
21821;BME280;11073;48.586;12.066;2023-02-11T08:21:44;98151.78;;;0.95;64.78
21821;BME280;11073;48.586;12.066;2023-02-11T08:24:15;98164.00;;;1.07;64.81
21821;BME280;11073;48.586;12.066;2023-02-11T08:26:43;98162.22;;;1.17;64.69
21821;BME280;11073;48.586;12.066;2023-02-11T08:29:13;98171.22;;;1.26;64.64
21821;BME280;11073;48.586;12.066;2023-02-11T08:31:44;98175.00;;;1.33;64.47
21821;BME280;11073;48.586;12.066;2023-02-11T08:34:14;98176.41;;;1.37;64.31
21821;BME280;11073;48.586;12.066;2023-02-11T08:36:46;98167.28;;;1.40;64.27
21821;BME280;11073;48.586;12.066;2023-02-11T08:39:18;98187.66;;;1.41;64.30
21821;BME280;11073;48.586;12.066;2023-02-11T08:41:48;98187.38;;;1.44;64.13
21821;BME280;11073;48.586;12.066;2023-02-11T08:44:18;98177.56;;;1.54;64.14
21821;BME280;11073;48.586;12.066;2023-02-11T08:46:47;98180.50;;;1.70;64.13
21821;BME280;11073;48.586;12.066;2023-02-11T08:49:16;98187.25;;;1.84;64.01
21821;BME280;11073;48.586;12.066;2023-02-11T08:51:45;98191.19;;;1.89;63.59
21821;BME280;11073;48.586;12.066;2023-02-11T08:54:14;98199.59;;;1.94;63.69
21821;BME280;11073;48.586;12.066;2023-02-11T08:56:44;98200.59;;;2.03;63.53
21821;BME280;11073;48.586;12.066;2023-02-11T08:59:13;98200.59;;;2.13;63.40
21821;BME280;11073;48.586;12.066;2023-02-11T09:01:44;98194.66;;;2.19;63.34
21821;BME280;11073;48.586;12.066;2023-02-11T09:04:13;98182.84;;;2.21;63.29
21821;BME280;11073;48.586;12.066;2023-02-11T09:06:42;98181.44;;;2.27;63.13
21821;BME280;11073;48.586;12.066;2023-02-11T09:09:12;98177.19;;;2.34;63.09
21821;BME280;11073;48.586;12.066;2023-02-11T09:11:42;98175.31;;;2.44;62.93
21821;BME280;11073;48.586;12.066;2023-02-11T09:14:17;98178.09;;;2.53;63.03
21821;BME280;11073;48.586;12.066;2023-02-11T09:16:46;98183.28;;;2.64;62.83
21821;BME280;11073;48.586;12.066;2023-02-11T09:19:16;98178.72;;;2.74;62.78
21821;BME280;11073;48.586;12.066;2023-02-11T09:21:44;98184.59;;;2.87;62.63
21821;BME280;11073;48.586;12.066;2023-02-11T09:24:13;98186.53;;;2.95;62.57
21821;BME280;11073;48.586;12.066;2023-02-11T09:26:42;98187.34;;;3.05;62.31
21821;BME280;11073;48.586;12.066;2023-02-11T09:29:10;98181.66;;;3.08;62.13
21821;BME280;11073;48.586;12.066;2023-02-11T09:31:40;98174.78;;;3.06;61.88
21821;BME280;11073;48.586;12.066;2023-02-11T09:34:09;98186.19;;;3.08;61.81
21821;BME280;11073;48.586;12.066;2023-02-11T09:36:39;98181.66;;;3.08;61.71
21821;BME280;11073;48.586;12.066;2023-02-11T09:39:11;98176.97;;;3.20;61.63
21821;BME280;11073;48.586;12.066;2023-02-11T09:41:59;98182.41;;;3.28;61.40
21821;BME280;11073;48.586;12.066;2023-02-11T09:44:31;98182.19;;;3.39;61.42
21821;BME280;11073;48.586;12.066;2023-02-11T09:47:04;98177.91;;;3.46;61.28
21821;BME280;11073;48.586;12.066;2023-02-11T09:49:38;98168.66;;;3.41;60.96
21821;BME280;11073;48.586;12.066;2023-02-11T09:52:14;98174.47;;;3.36;60.77
21821;BME280;11073;48.586;12.066;2023-02-11T09:54:52;98186.16;;;3.35;60.65
21821;BME280;11073;48.586;12.066;2023-02-11T09:57:23;98183.00;;;3.40;60.78
21821;BME280;11073;48.586;12.066;2023-02-11T09:59:55;98188.13;;;3.33;60.67
21821;BME280;11073;48.586;12.066;2023-02-11T10:02:33;98192.19;;;3.37;60.65
21821;BME280;11073;48.586;12.066;2023-02-11T10:05:14;98200.03;;;3.48;60.60
21821;BME280;11073;48.586;12.066;2023-02-11T10:07:54;98190.94;;;3.95;60.64
21821;BME280;11073;48.586;12.066;2023-02-11T10:10:39;98198.06;;;4.56;60.39
21821;BME280;11073;48.586;12.066;2023-02-11T10:16:06;98188.97;;;5.59;59.35
21821;BME280;11073;48.586;12.066;2023-02-11T10:18:48;98185.13;;;5.78;58.80
21821;BME280;11073;48.586;12.066;2023-02-11T10:21:30;98174.72;;;5.83;57.86
21821;BME280;11073;48.586;12.066;2023-02-11T10:24:02;98167.00;;;5.80;57.33
21821;BME280;11073;48.586;12.066;2023-02-11T10:26:35;98168.31;;;5.68;56.73
21821;BME280;11073;48.586;12.066;2023-02-11T10:29:13;98159.91;;;5.63;56.52
21821;BME280;11073;48.586;12.066;2023-02-11T10:31:45;98155.53;;;5.62;56.21
21821;BME280;11073;48.586;12.066;2023-02-11T10:34:15;98153.03;;;5.68;56.08
21821;BME280;11073;48.586;12.066;2023-02-11T10:36:44;98146.47;;;5.79;56.14
21821;BME280;11073;48.586;12.066;2023-02-11T10:39:15;98137.25;;;5.90;55.68
21821;BME280;11073;48.586;12.066;2023-02-11T10:41:46;98153.91;;;5.93;55.39
21821;BME280;11073;48.586;12.066;2023-02-11T10:44:22;98157.44;;;5.94;55.14
21821;BME280;11073;48.586;12.066;2023-02-11T10:46:52;98161.63;;;5.80;54.81
21821;BME280;11073;48.586;12.066;2023-02-11T10:49:39;98167.53;;;5.92;55.18
21821;BME280;11073;48.586;12.066;2023-02-11T10:52:13;98176.75;;;5.89;54.94
21821;BME280;11073;48.586;12.066;2023-02-11T10:54:55;98170.84;;;5.86;54.78
21821;BME280;11073;48.586;12.066;2023-02-11T10:57:27;98161.09;;;5.76;54.63
21821;BME280;11073;48.586;12.066;2023-02-11T11:00:01;98153.88;;;5.69;54.47
21821;BME280;11073;48.586;12.066;2023-02-11T11:02:33;98157.38;;;5.61;54.39
21821;BME280;11073;48.586;12.066;2023-02-11T11:05:15;98157.53;;;5.51;54.47
21821;BME280;11073;48.586;12.066;2023-02-11T11:07:52;98159.88;;;5.46;54.57
21821;BME280;11073;48.586;12.066;2023-02-11T11:10:27;98167.44;;;5.51;54.73
21821;BME280;11073;48.586;12.066;2023-02-11T11:12:56;98151.81;;;5.54;54.62
21821;BME280;11073;48.586;12.066;2023-02-11T11:15:26;98144.97;;;5.60;54.68
21821;BME280;11073;48.586;12.066;2023-02-11T11:18:11;98142.63;;;5.65;54.66
21821;BME280;11073;48.586;12.066;2023-02-11T11:20:57;98140.59;;;5.67;54.47
21821;BME280;11073;48.586;12.066;2023-02-11T11:23:27;98144.47;;;5.73;54.59
21821;BME280;11073;48.586;12.066;2023-02-11T11:26:01;98136.72;;;5.78;54.57
21821;BME280;11073;48.586;12.066;2023-02-11T11:28:34;98133.06;;;5.87;54.63
21821;BME280;11073;48.586;12.066;2023-02-11T11:31:11;98138.13;;;5.98;54.52
21821;BME280;11073;48.586;12.066;2023-02-11T11:33:42;98134.25;;;6.09;54.54
21821;BME280;11073;48.586;12.066;2023-02-11T11:36:16;98131.88;;;6.14;54.54
21821;BME280;11073;48.586;12.066;2023-02-11T11:38:50;98121.31;;;6.04;54.29
21821;BME280;11073;48.586;12.066;2023-02-11T11:41:24;98108.53;;;5.98;54.55
21821;BME280;11073;48.586;12.066;2023-02-11T11:43:55;98099.47;;;5.99;54.49
21821;BME280;11073;48.586;12.066;2023-02-11T11:46:27;98097.13;;;5.96;54.53
21821;BME280;11073;48.586;12.066;2023-02-11T11:49:11;98092.94;;;6.02;54.44
21821;BME280;11073;48.586;12.066;2023-02-11T11:51:44;98086.00;;;5.99;54.73
21821;BME280;11073;48.586;12.066;2023-02-11T11:54:17;98087.84;;;6.07;54.53
21821;BME280;11073;48.586;12.066;2023-02-11T11:56:52;98089.53;;;6.00;54.43
21821;BME280;11073;48.586;12.066;2023-02-11T11:59:23;98093.41;;;6.05;54.50
21821;BME280;11073;48.586;12.066;2023-02-11T12:02:04;98087.00;;;6.15;54.63
21821;BME280;11073;48.586;12.066;2023-02-11T12:04:52;98092.25;;;6.16;54.46
21821;BME280;11073;48.586;12.066;2023-02-11T12:07:35;98095.75;;;6.25;54.58
21821;BME280;11073;48.586;12.066;2023-02-11T12:10:22;98080.25;;;6.35;54.38
21821;BME280;11073;48.586;12.066;2023-02-11T12:13:06;98087.84;;;6.31;54.36
21821;BME280;11073;48.586;12.066;2023-02-11T12:15:44;98086.78;;;6.41;54.35
21821;BME280;11073;48.586;12.066;2023-02-11T12:18:23;98085.75;;;6.50;54.17
21821;BME280;11073;48.586;12.066;2023-02-11T12:21:12;98084.19;;;6.63;54.18
21821;BME280;11073;48.586;12.066;2023-02-11T12:23:54;98076.06;;;6.72;54.20
21821;BME280;11073;48.586;12.066;2023-02-11T12:26:31;98077.06;;;6.79;54.06
21821;BME280;11073;48.586;12.066;2023-02-11T12:29:08;98074.31;;;6.87;53.79
21821;BME280;11073;48.586;12.066;2023-02-11T12:31:53;98067.59;;;6.91;53.83
21821;BME280;11073;48.586;12.066;2023-02-11T12:34:38;98067.06;;;6.96;53.81
21821;BME280;11073;48.586;12.066;2023-02-11T12:37:19;98069.00;;;7.10;53.64
21821;BME280;11073;48.586;12.066;2023-02-11T12:39:55;98058.34;;;7.16;53.69
21821;BME280;11073;48.586;12.066;2023-02-11T12:42:38;98051.97;;;7.17;53.44
21821;BME280;11073;48.586;12.066;2023-02-11T12:45:43;98056.22;;;7.35;53.49
21821;BME280;11073;48.586;12.066;2023-02-11T12:48:26;98058.00;;;7.65;53.41
21821;BME280;11073;48.586;12.066;2023-02-11T12:51:08;98060.88;;;8.39;53.45
21821;BME280;11073;48.586;12.066;2023-02-11T12:53:50;98065.00;;;9.16;52.89
21821;BME280;11073;48.586;12.066;2023-02-11T12:56:27;98065.03;;;9.01;51.96
21821;BME280;11073;48.586;12.066;2023-02-11T12:59:00;98068.31;;;8.81;51.73
21821;BME280;11073;48.586;12.066;2023-02-11T13:01:35;98057.78;;;8.87;51.53
21821;BME280;11073;48.586;12.066;2023-02-11T13:04:11;98051.25;;;8.96;51.39
21821;BME280;11073;48.586;12.066;2023-02-11T13:06:45;98057.41;;;8.90;51.04
21821;BME280;11073;48.586;12.066;2023-02-11T13:09:19;98057.41;;;8.75;50.94
21821;BME280;11073;48.586;12.066;2023-02-11T13:11:54;98035.56;;;8.55;50.73
21821;BME280;11073;48.586;12.066;2023-02-11T13:14:28;98029.78;;;8.73;50.68
21821;BME280;11073;48.586;12.066;2023-02-11T13:16:59;98031.00;;;9.06;50.89
21821;BME280;11073;48.586;12.066;2023-02-11T13:19:31;98029.94;;;9.22;50.61
21821;BME280;11073;48.586;12.066;2023-02-11T13:22:05;98026.13;;;9.17;50.20
21821;BME280;11073;48.586;12.066;2023-02-11T13:24:41;98029.34;;;9.27;50.36
21821;BME280;11073;48.586;12.066;2023-02-11T13:27:23;98038.34;;;9.34;50.15
21821;BME280;11073;48.586;12.066;2023-02-11T13:30:22;98028.97;;;9.73;49.94